Myerstown, Pennsylvania
Current Conditions -  °F | °C
As of 10:58 AM on Thursday 23 Oct 2014 (Local Time) from KMUI Reporting Station
Overcast Overcast  
Wind Chill: 54°   Ceiling: 2500
Heat Index: 54°   Visibility: 10mi
Dew Point: 47°   Wind: 12mph
Humidity: 76%   Direction: 330°NNW
Pressure: 29.87"   Gusts: 21mph
Location:  40.37°N, 76.3°W
Report Text: KMUI 231458Z AUTO 33010G18KT 310V020 10SM OVC025 12/08 A2987 RMK AO2 PK WND 02026/20 SLP118 T01240082 53000 $
Loading
Personal Weather Stations






























Interactive Weather Map
Tropical Storm Tracking
New forecast layout! Learn more

10-Day Weather Forecast

Advertisements
Track Severe Weather on mobile